sensor_id;sensor_type;location;lat;lon;timestamp;pressure;altitude;pressure_sealevel;temperature;humidity
46718;BME280;32448;44.960;-0.698;2023-02-01T00:00:36;102951.66;;;3.55;100.00
46718;BME280;32448;44.960;-0.698;2023-02-01T00:03:03;102951.66;;;3.55;100.00
46718;BME280;32448;44.960;-0.698;2023-02-01T00:05:32;102952.34;;;3.52;100.00
46718;BME280;32448;44.960;-0.698;2023-02-01T00:07:59;102948.97;;;3.43;100.00
46718;BME280;32448;44.960;-0.698;2023-02-01T00:10:27;102955.59;;;3.40;100.00
46718;BME280;32448;44.960;-0.698;2023-02-01T00:12:54;102948.25;;;3.34;100.00
46718;BME280;32448;44.960;-0.698;2023-02-01T00:15:23;102959.78;;;3.27;100.00
46718;BME280;32448;44.960;-0.698;2023-02-01T00:17:54;102956.44;;;3.28;100.00
46718;BME280;32448;44.960;-0.698;2023-02-01T00:20:23;102962.88;;;3.23;100.00
46718;BME280;32448;44.960;-0.698;2023-02-01T00:22:51;102948.31;;;3.14;100.00
46718;BME280;32448;44.960;-0.698;2023-02-01T00:25:18;102956.06;;;3.14;100.00
46718;BME280;32448;44.960;-0.698;2023-02-01T00:27:49;102963.69;;;3.12;100.00
46718;BME280;32448;44.960;-0.698;2023-02-01T00:30:18;102960.50;;;3.05;100.00
46718;BME280;32448;44.960;-0.698;2023-02-01T00:32:46;102953.03;;;2.98;100.00
46718;BME280;32448;44.960;-0.698;2023-02-01T00:35:13;102964.38;;;3.00;100.00
46718;BME280;32448;44.960;-0.698;2023-02-01T00:37:40;102951.47;;;2.89;100.00
46718;BME280;32448;44.960;-0.698;2023-02-01T00:40:08;102956.00;;;2.92;100.00
46718;BME280;32448;44.960;-0.698;2023-02-01T00:42:38;102951.63;;;2.81;100.00
46718;BME280;32448;44.960;-0.698;2023-02-01T00:45:06;102960.13;;;2.80;100.00
46718;BME280;32448;44.960;-0.698;2023-02-01T00:47:33;102957.56;;;2.80;100.00
46718;BME280;32448;44.960;-0.698;2023-02-01T00:50:00;102947.63;;;2.74;100.00
46718;BME280;32448;44.960;-0.698;2023-02-01T00:52:28;102955.00;;;2.70;100.00
46718;BME280;32448;44.960;-0.698;2023-02-01T00:54:56;102951.78;;;2.62;100.00
46718;BME280;32448;44.960;-0.698;2023-02-01T00:57:23;102949.31;;;2.64;100.00
46718;BME280;32448;44.960;-0.698;2023-02-01T00:59:50;102950.88;;;2.62;100.00
46718;BME280;32448;44.960;-0.698;2023-02-01T01:02:18;102952.28;;;2.58;100.00
46718;BME280;32448;44.960;-0.698;2023-02-01T01:04:46;102949.72;;;2.48;100.00
46718;BME280;32448;44.960;-0.698;2023-02-01T01:07:13;102948.16;;;2.50;100.00
46718;BME280;32448;44.960;-0.698;2023-02-01T01:13:10;102947.63;;;2.44;100.00
46718;BME280;32448;44.960;-0.698;2023-02-01T01:15:39;102950.34;;;2.35;100.00
46718;BME280;32448;44.960;-0.698;2023-02-01T01:18:07;102948.41;;;2.33;100.00
46718;BME280;32448;44.960;-0.698;2023-02-01T01:20:37;102941.47;;;2.32;100.00
46718;BME280;32448;44.960;-0.698;2023-02-01T01:23:06;102945.19;;;2.25;100.00
46718;BME280;32448;44.960;-0.698;2023-02-01T01:25:38;102944.00;;;2.22;100.00
46718;BME280;32448;44.960;-0.698;2023-02-01T01:28:06;102950.59;;;2.18;100.00
46718;BME280;32448;44.960;-0.698;2023-02-01T01:30:34;102950.34;;;2.15;100.00
46718;BME280;32448;44.960;-0.698;2023-02-01T01:33:02;102947.88;;;2.16;100.00
46718;BME280;32448;44.960;-0.698;2023-02-01T01:35:31;102916.78;;;1.95;100.00
46718;BME280;32448;44.960;-0.698;2023-02-01T01:37:59;102949.94;;;2.10;100.00
46718;BME280;32448;44.960;-0.698;2023-02-01T01:40:28;102960.00;;;2.07;100.00
46718;BME280;32448;44.960;-0.698;2023-02-01T01:42:58;102937.41;;;1.95;100.00
46718;BME280;32448;44.960;-0.698;2023-02-01T01:45:27;102967.22;;;2.11;100.00
46718;BME280;32448;44.960;-0.698;2023-02-01T01:50:27;102954.44;;;2.03;100.00
46718;BME280;32448;44.960;-0.698;2023-02-01T01:52:58;102932.88;;;1.92;100.00
46718;BME280;32448;44.960;-0.698;2023-02-01T01:55:30;102952.13;;;1.96;100.00
46718;BME280;32448;44.960;-0.698;2023-02-01T01:58:02;102962.81;;;2.00;100.00
46718;BME280;32448;44.960;-0.698;2023-02-01T02:00:30;102956.75;;;2.00;100.00
46718;BME280;32448;44.960;-0.698;2023-02-01T02:03:29;102936.22;;;1.81;100.00
46718;BME280;32448;44.960;-0.698;2023-02-01T02:05:56;102963.19;;;1.95;100.00
46718;BME280;32448;44.960;-0.698;2023-02-01T02:08:25;102971.72;;;2.04;100.00
46718;BME280;32448;44.960;-0.698;2023-02-01T02:10:53;102961.53;;;2.05;100.00
46718;BME280;32448;44.960;-0.698;2023-02-01T02:38:53;102967.00;;;2.49;100.00
46718;BME280;32448;44.960;-0.698;2023-02-01T02:41:27;102968.94;;;2.51;100.00
46718;BME280;32448;44.960;-0.698;2023-02-01T02:53:18;102951.38;;;2.58;100.00
46718;BME280;32448;44.960;-0.698;2023-02-01T02:56:08;102953.81;;;2.66;100.00
46718;BME280;32448;44.960;-0.698;2023-02-01T02:58:57;102944.38;;;2.77;100.00
46718;BME280;32448;44.960;-0.698;2023-02-01T03:01:45;102949.44;;;2.75;100.00
46718;BME280;32448;44.960;-0.698;2023-02-01T03:04:31;102950.09;;;2.73;100.00
46718;BME280;32448;44.960;-0.698;2023-02-01T03:07:12;102955.50;;;2.76;100.00
46718;BME280;32448;44.960;-0.698;2023-02-01T03:09:41;102946.19;;;2.78;100.00
46718;BME280;32448;44.960;-0.698;2023-02-01T03:12:14;102945.28;;;2.77;100.00
46718;BME280;32448;44.960;-0.698;2023-02-01T03:15:07;102945.69;;;2.82;100.00
46718;BME280;32448;44.960;-0.698;2023-02-01T03:17:39;102949.56;;;2.87;100.00
46718;BME280;32448;44.960;-0.698;2023-02-01T03:20:10;102950.19;;;2.95;100.00
46718;BME280;32448;44.960;-0.698;2023-02-01T03:22:41;102950.44;;;2.98;100.00
46718;BME280;32448;44.960;-0.698;2023-02-01T03:25:16;102946.97;;;2.97;100.00
46718;BME280;32448;44.960;-0.698;2023-02-01T03:27:55;102956.22;;;3.05;100.00
46718;BME280;32448;44.960;-0.698;2023-02-01T03:30:31;102952.88;;;3.06;100.00
46718;BME280;32448;44.960;-0.698;2023-02-01T03:33:03;102942.53;;;3.06;100.00
46718;BME280;32448;44.960;-0.698;2023-02-01T03:41:11;102939.28;;;3.19;100.00
46718;BME280;32448;44.960;-0.698;2023-02-01T03:46:21;102938.50;;;3.20;100.00
46718;BME280;32448;44.960;-0.698;2023-02-01T03:48:52;102923.66;;;3.17;100.00
46718;BME280;32448;44.960;-0.698;2023-02-01T03:51:20;102933.34;;;3.20;100.00
46718;BME280;32448;44.960;-0.698;2023-02-01T03:53:50;102934.47;;;3.23;100.00
46718;BME280;32448;44.960;-0.698;2023-02-01T03:56:21;102936.41;;;3.26;100.00
46718;BME280;32448;44.960;-0.698;2023-02-01T03:58:51;102932.13;;;3.26;100.00
46718;BME280;32448;44.960;-0.698;2023-02-01T04:01:32;102939.13;;;3.27;100.00
46718;BME280;32448;44.960;-0.698;2023-02-01T04:04:00;102939.13;;;3.27;100.00
46718;BME280;32448;44.960;-0.698;2023-02-01T04:06:27;102931.22;;;3.26;100.00
46718;BME280;32448;44.960;-0.698;2023-02-01T04:08:59;102942.31;;;3.35;100.00
46718;BME280;32448;44.960;-0.698;2023-02-01T04:11:26;102956.00;;;3.34;100.00
46718;BME280;32448;44.960;-0.698;2023-02-01T04:13:55;102955.22;;;3.35;100.00
46718;BME280;32448;44.960;-0.698;2023-02-01T04:16:23;102956.50;;;3.40;100.00
46718;BME280;32448;44.960;-0.698;2023-02-01T04:18:51;102934.97;;;3.29;100.00
46718;BME280;32448;44.960;-0.698;2023-02-01T04:21:21;102967.06;;;3.43;100.00
46718;BME280;32448;44.960;-0.698;2023-02-01T04:23:48;102965.00;;;3.49;100.00
46718;BME280;32448;44.960;-0.698;2023-02-01T04:26:16;102964.88;;;3.48;100.00
46718;BME280;32448;44.960;-0.698;2023-02-01T04:28:43;102967.84;;;3.52;100.00
46718;BME280;32448;44.960;-0.698;2023-02-01T04:31:11;102955.38;;;3.58;100.00
46718;BME280;32448;44.960;-0.698;2023-02-01T04:33:38;102961.59;;;3.60;100.00
46718;BME280;32448;44.960;-0.698;2023-02-01T04:36:05;102955.25;;;3.57;100.00
46718;BME280;32448;44.960;-0.698;2023-02-01T04:38:33;102955.31;;;3.47;100.00
46718;BME280;32448;44.960;-0.698;2023-02-01T04:41:00;102976.34;;;3.61;100.00
46718;BME280;32448;44.960;-0.698;2023-02-01T04:43:28;102967.13;;;3.65;100.00
46718;BME280;32448;44.960;-0.698;2023-02-01T04:45:55;102966.72;;;3.71;100.00
46718;BME280;32448;44.960;-0.698;2023-02-01T04:48:25;102961.53;;;3.71;100.00
46718;BME280;32448;44.960;-0.698;2023-02-01T04:50:52;102970.47;;;3.74;100.00
46718;BME280;32448;44.960;-0.698;2023-02-01T04:53:19;102972.00;;;3.72;100.00
46718;BME280;32448;44.960;-0.698;2023-02-01T04:55:48;102960.16;;;3.64;100.00
46718;BME280;32448;44.960;-0.698;2023-02-01T04:58:15;102966.84;;;3.72;100.00
46718;BME280;32448;44.960;-0.698;2023-02-01T05:00:43;102964.38;;;3.74;100.00
46718;BME280;32448;44.960;-0.698;2023-02-01T05:03:10;102968.88;;;3.76;100.00
46718;BME280;32448;44.960;-0.698;2023-02-01T05:05:37;102968.88;;;3.76;100.00
46718;BME280;32448;44.960;-0.698;2023-02-01T05:08:05;102977.66;;;3.78;100.00
46718;BME280;32448;44.960;-0.698;2023-02-01T05:10:32;102972.50;;;3.78;100.00
46718;BME280;32448;44.960;-0.698;2023-02-01T05:13:00;102969.78;;;3.77;100.00
46718;BME280;32448;44.960;-0.698;2023-02-01T05:15:46;102971.84;;;3.81;100.00
46718;BME280;32448;44.960;-0.698;2023-02-01T05:18:13;102968.47;;;3.82;100.00
46718;BME280;32448;44.960;-0.698;2023-02-01T05:20:41;102966.91;;;3.84;100.00
46718;BME280;32448;44.960;-0.698;2023-02-01T05:23:08;102967.81;;;3.84;100.00
46718;BME280;32448;44.960;-0.698;2023-02-01T05:25:35;102966.13;;;3.85;100.00
46718;BME280;32448;44.960;-0.698;2023-02-01T05:28:03;102968.72;;;3.85;100.00
46718;BME280;32448;44.960;-0.698;2023-02-01T05:30:30;102964.44;;;3.85;100.00
46718;BME280;32448;44.960;-0.698;2023-02-01T05:33:00;102965.44;;;3.87;100.00
46718;BME280;32448;44.960;-0.698;2023-02-01T05:35:27;102962.22;;;3.90;100.00
46718;BME280;32448;44.960;-0.698;2023-02-01T05:37:55;102965.69;;;3.90;100.00
46718;BME280;32448;44.960;-0.698;2023-02-01T05:40:22;102961.56;;;3.92;100.00
46718;BME280;32448;44.960;-0.698;2023-02-01T05:42:52;102961.31;;;3.89;100.00
46718;BME280;32448;44.960;-0.698;2023-02-01T05:45:19;102968.66;;;3.95;100.00
46718;BME280;32448;44.960;-0.698;2023-02-01T05:47:46;102963.63;;;3.96;100.00
46718;BME280;32448;44.960;-0.698;2023-02-01T05:50:14;102963.69;;;3.98;100.00
46718;BME280;32448;44.960;-0.698;2023-02-01T05:52:41;102967.09;;;3.97;100.00
46718;BME280;32448;44.960;-0.698;2023-02-01T05:55:09;102974.31;;;4.01;100.00
46718;BME280;32448;44.960;-0.698;2023-02-01T05:57:36;102955.94;;;3.98;100.00
46718;BME280;32448;44.960;-0.698;2023-02-01T06:00:04;102963.94;;;4.01;100.00
46718;BME280;32448;44.960;-0.698;2023-02-01T06:02:41;102962.16;;;4.00;100.00
46718;BME280;32448;44.960;-0.698;2023-02-01T06:05:11;102979.59;;;4.02;100.00
46718;BME280;32448;44.960;-0.698;2023-02-01T06:07:40;102972.75;;;4.03;100.00
46718;BME280;32448;44.960;-0.698;2023-02-01T06:10:08;102981.53;;;4.05;100.00
46718;BME280;32448;44.960;-0.698;2023-02-01T06:12:36;102974.56;;;4.04;100.00
46718;BME280;32448;44.960;-0.698;2023-02-01T06:15:04;102962.47;;;3.93;100.00
46718;BME280;32448;44.960;-0.698;2023-02-01T06:17:31;102978.94;;;4.05;100.00
46718;BME280;32448;44.960;-0.698;2023-02-01T06:19:59;102980.88;;;4.08;100.00
46718;BME280;32448;44.960;-0.698;2023-02-01T06:22:26;102982.69;;;4.09;100.00
46718;BME280;32448;44.960;-0.698;2023-02-01T06:24:53;102972.22;;;4.07;100.00
46718;BME280;32448;44.960;-0.698;2023-02-01T06:27:21;102970.53;;;4.08;100.00
46718;BME280;32448;44.960;-0.698;2023-02-01T06:29:48;102967.16;;;4.09;100.00
46718;BME280;32448;44.960;-0.698;2023-02-01T06:32:17;102983.28;;;4.16;100.00
46718;BME280;32448;44.960;-0.698;2023-02-01T06:34:45;102980.56;;;4.15;100.00
46718;BME280;32448;44.960;-0.698;2023-02-01T06:37:12;102981.59;;;4.17;100.00
46718;BME280;32448;44.960;-0.698;2023-02-01T06:39:40;102988.56;;;4.18;100.00
46718;BME280;32448;44.960;-0.698;2023-02-01T06:42:08;102986.97;;;4.20;100.00
46718;BME280;32448;44.960;-0.698;2023-02-01T06:44:35;102980.94;;;4.19;100.00
46718;BME280;32448;44.960;-0.698;2023-02-01T06:47:03;102987.88;;;4.20;100.00
46718;BME280;32448;44.960;-0.698;2023-02-01T06:49:34;102992.16;;;4.20;100.00
46718;BME280;32448;44.960;-0.698;2023-02-01T06:52:02;102994.75;;;4.20;100.00
46718;BME280;32448;44.960;-0.698;2023-02-01T06:54:30;102979.66;;;4.14;100.00
46718;BME280;32448;44.960;-0.698;2023-02-01T06:57:00;102997.72;;;4.24;100.00
46718;BME280;32448;44.960;-0.698;2023-02-01T06:59:28;102995.38;;;4.27;100.00
46718;BME280;32448;44.960;-0.698;2023-02-01T07:01:55;102996.47;;;4.31;100.00
46718;BME280;32448;44.960;-0.698;2023-02-01T07:04:25;102992.00;;;4.28;100.00
46718;BME280;32448;44.960;-0.698;2023-02-01T07:06:52;102992.34;;;4.33;100.00
46718;BME280;32448;44.960;-0.698;2023-02-01T07:09:20;103007.22;;;4.35;100.00
46718;BME280;32448;44.960;-0.698;2023-02-01T07:11:47;103001.91;;;4.34;100.00
46718;BME280;32448;44.960;-0.698;2023-02-01T07:14:15;102990.31;;;4.29;100.00
46718;BME280;32448;44.960;-0.698;2023-02-01T07:16:46;103006.06;;;4.32;100.00
46718;BME280;32448;44.960;-0.698;2023-02-01T07:19:13;102996.47;;;4.31;100.00
46718;BME280;32448;44.960;-0.698;2023-02-01T07:21:40;103004.50;;;4.34;100.00
46718;BME280;32448;44.960;-0.698;2023-02-01T07:24:08;103000.22;;;4.34;100.00
46718;BME280;32448;44.960;-0.698;2023-02-01T07:26:35;103002.03;;;4.35;100.00
46718;BME280;32448;44.960;-0.698;2023-02-01T07:29:03;103003.84;;;4.36;100.00
46718;BME280;32448;44.960;-0.698;2023-02-01T07:31:30;103015.22;;;4.38;100.00
46718;BME280;32448;44.960;-0.698;2023-02-01T07:33:58;103018.72;;;4.39;100.00
46718;BME280;32448;44.960;-0.698;2023-02-01T07:36:25;103024.81;;;4.39;100.00
46718;BME280;32448;44.960;-0.698;2023-02-01T07:38:52;103021.19;;;4.37;100.00
46718;BME280;32448;44.960;-0.698;2023-02-01T07:41:22;103011.34;;;4.33;100.00
46718;BME280;32448;44.960;-0.698;2023-02-01T07:43:52;103033.69;;;4.43;100.00
46718;BME280;32448;44.960;-0.698;2023-02-01T07:46:19;103040.47;;;4.41;100.00
46718;BME280;32448;44.960;-0.698;2023-02-01T07:48:47;103031.78;;;4.41;100.00
46718;BME280;32448;44.960;-0.698;2023-02-01T07:51:16;103040.66;;;4.44;100.00
46718;BME280;32448;44.960;-0.698;2023-02-01T07:53:44;103040.91;;;4.47;100.00
46718;BME280;32448;44.960;-0.698;2023-02-01T07:56:22;103036.78;;;4.49;100.00
46718;BME280;32448;44.960;-0.698;2023-02-01T07:58:51;103038.59;;;4.50;100.00
46718;BME280;32448;44.960;-0.698;2023-02-01T08:01:22;103048.63;;;4.57;100.00
46718;BME280;32448;44.960;-0.698;2023-02-01T08:03:59;103050.56;;;4.60;100.00
46718;BME280;32448;44.960;-0.698;2023-02-01T08:06:30;103048.28;;;4.64;100.00
46718;BME280;32448;44.960;-0.698;2023-02-01T08:08:58;103051.13;;;4.67;100.00
46718;BME280;32448;44.960;-0.698;2023-02-01T08:11:26;103044.13;;;4.66;100.00
46718;BME280;32448;44.960;-0.698;2023-02-01T08:13:53;103049.03;;;4.73;100.00
46718;BME280;32448;44.960;-0.698;2023-02-01T08:16:22;103039.88;;;4.67;100.00
46718;BME280;32448;44.960;-0.698;2023-02-01T08:18:51;103050.75;;;4.85;100.00
46718;BME280;32448;44.960;-0.698;2023-02-01T08:21:22;103022.97;;;4.60;100.00
46718;BME280;32448;44.960;-0.698;2023-02-01T08:23:51;103056.84;;;4.85;100.00
46718;BME280;32448;44.960;-0.698;2023-02-01T08:26:23;103056.22;;;4.78;100.00
46718;BME280;32448;44.960;-0.698;2023-02-01T08:28:55;103072.59;;;4.88;100.00
46718;BME280;32448;44.960;-0.698;2023-02-01T08:31:25;103056.34;;;4.79;100.00
46718;BME280;32448;44.960;-0.698;2023-02-01T08:33:55;103082.22;;;5.01;100.00
46718;BME280;32448;44.960;-0.698;2023-02-01T08:36:23;103074.44;;;5.01;100.00
46718;BME280;32448;44.960;-0.698;2023-02-01T08:38:51;103054.81;;;4.93;100.00
46718;BME280;32448;44.960;-0.698;2023-02-01T08:41:23;103080.19;;;5.08;100.00
46718;BME280;32448;44.960;-0.698;2023-02-01T08:43:51;103090.03;;;5.12;100.00
46718;BME280;32448;44.960;-0.698;2023-02-01T08:46:21;103082.13;;;5.11;100.00
46718;BME280;32448;44.960;-0.698;2023-02-01T08:48:50;103096.34;;;5.16;100.00
46718;BME280;32448;44.960;-0.698;2023-02-01T08:51:20;103101.88;;;5.21;100.00
46718;BME280;32448;44.960;-0.698;2023-02-01T08:53:48;103091.63;;;5.22;100.00
46718;BME280;32448;44.960;-0.698;2023-02-01T08:56:17;103096.91;;;5.24;100.00
46718;BME280;32448;44.960;-0.698;2023-02-01T08:58:44;103074.47;;;5.12;100.00
46718;BME280;32448;44.960;-0.698;2023-02-01T09:01:15;103102.56;;;5.41;100.00
46718;BME280;32448;44.960;-0.698;2023-02-01T09:03:44;103102.25;;;5.48;100.00
46718;BME280;32448;44.960;-0.698;2023-02-01T09:06:13;103113.66;;;5.51;100.00
46718;BME280;32448;44.960;-0.698;2023-02-01T09:08:41;103122.78;;;5.57;100.00
46718;BME280;32448;44.960;-0.698;2023-02-01T09:11:15;103114.22;;;5.58;100.00
46718;BME280;32448;44.960;-0.698;2023-02-01T09:13:44;103118.63;;;5.59;100.00
46718;BME280;32448;44.960;-0.698;2023-02-01T09:16:11;103116.28;;;5.62;100.00
46718;BME280;32448;44.960;-0.698;2023-02-01T09:18:39;103101.94;;;5.67;100.00
46718;BME280;32448;44.960;-0.698;2023-02-01T09:21:22;103120.22;;;5.80;100.00
46718;BME280;32448;44.960;-0.698;2023-02-01T09:23:51;103123.84;;;5.82;100.00
46718;BME280;32448;44.960;-0.698;2023-02-01T09:26:18;103123.41;;;5.88;100.00
46718;BME280;32448;44.960;-0.698;2023-02-01T09:28:57;103127.38;;;5.95;100.00
46718;BME280;32448;44.960;-0.698;2023-02-01T09:31:25;103123.97;;;5.96;100.00
46718;BME280;32448;44.960;-0.698;2023-02-01T09:33:52;103132.31;;;6.15;100.00
46718;BME280;32448;44.960;-0.698;2023-02-01T09:36:19;103131.16;;;6.23;100.00
46718;BME280;32448;44.960;-0.698;2023-02-01T09:38:46;103132.28;;;6.27;100.00
46718;BME280;32448;44.960;-0.698;2023-02-01T09:44:49;103135.97;;;6.42;100.00
46718;BME280;32448;44.960;-0.698;2023-02-01T09:47:22;103133.81;;;6.48;100.00
46718;BME280;32448;44.960;-0.698;2023-02-01T09:50:11;103108.19;;;6.41;100.00
46718;BME280;32448;44.960;-0.698;2023-02-01T09:52:48;103116.53;;;6.48;100.00
46718;BME280;32448;44.960;-0.698;2023-02-01T09:55:41;103135.34;;;6.69;100.00
46718;BME280;32448;44.960;-0.698;2023-02-01T09:58:22;103097.94;;;6.67;100.00
46718;BME280;32448;44.960;-0.698;2023-02-01T10:00:54;103101.00;;;6.73;100.00
46718;BME280;32448;44.960;-0.698;2023-02-01T10:03:29;103118.88;;;6.93;100.00
46718;BME280;32448;44.960;-0.698;2023-02-01T10:06:20;103122.66;;;6.99;100.00
46718;BME280;32448;44.960;-0.698;2023-02-01T10:14:52;103121.25;;;7.15;100.00
46718;BME280;32448;44.960;-0.698;2023-02-01T10:26:22;103133.84;;;7.22;100.00
46718;BME280;32448;44.960;-0.698;2023-02-01T10:28:57;103145.94;;;7.22;100.00
46718;BME280;32448;44.960;-0.698;2023-02-01T10:31:29;103152.50;;;7.28;100.00
46718;BME280;32448;44.960;-0.698;2023-02-01T10:33:59;103153.31;;;7.41;100.00
46718;BME280;32448;44.960;-0.698;2023-02-01T10:36:41;103143.34;;;7.60;100.00
46718;BME280;32448;44.960;-0.698;2023-02-01T10:39:11;103137.13;;;7.58;100.00
46718;BME280;32448;44.960;-0.698;2023-02-01T10:41:42;103142.25;;;7.70;100.00
46718;BME280;32448;44.960;-0.698;2023-02-01T10:44:26;103147.97;;;7.77;100.00
46718;BME280;32448;44.960;-0.698;2023-02-01T10:46:55;103146.97;;;7.88;100.00
46718;BME280;32448;44.960;-0.698;2023-02-01T10:49:36;103144.38;;;8.01;100.00
46718;BME280;32448;44.960;-0.698;2023-02-01T10:54:48;103141.44;;;8.23;100.00
46718;BME280;32448;44.960;-0.698;2023-02-01T10:57:24;103125.94;;;8.38;100.00
46718;BME280;32448;44.960;-0.698;2023-02-01T10:59:53;103132.09;;;8.53;100.00
46718;BME280;32448;44.960;-0.698;2023-02-01T11:02:28;103109.50;;;8.39;100.00
46718;BME280;32448;44.960;-0.698;2023-02-01T11:05:08;103139.41;;;8.59;100.00
46718;BME280;32448;44.960;-0.698;2023-02-01T11:07:40;103089.22;;;8.48;100.00
46718;BME280;32448;44.960;-0.698;2023-02-01T11:10:43;103140.06;;;8.83;100.00
46718;BME280;32448;44.960;-0.698;2023-02-01T11:13:17;103127.38;;;8.89;100.00
46718;BME280;32448;44.960;-0.698;2023-02-01T11:15:46;103131.97;;;8.93;100.00
46718;BME280;32448;44.960;-0.698;2023-02-01T11:18:20;103128.38;;;8.91;100.00
46718;BME280;32448;44.960;-0.698;2023-02-01T11:20:52;103125.81;;;9.05;100.00
46718;BME280;32448;44.960;-0.698;2023-02-01T11:23:28;103112.03;;;8.93;100.00
46718;BME280;32448;44.960;-0.698;2023-02-01T11:25:59;103108.69;;;8.96;100.00
46718;BME280;32448;44.960;-0.698;2023-02-01T11:28:32;103119.94;;;9.09;100.00
46718;BME280;32448;44.960;-0.698;2023-02-01T11:31:05;103120.50;;;9.19;100.00
46718;BME280;32448;44.960;-0.698;2023-02-01T11:33:47;103113.97;;;9.25;100.00
46718;BME280;32448;44.960;-0.698;2023-02-01T11:36:18;103112.97;;;9.23;100.00
46718;BME280;32448;44.960;-0.698;2023-02-01T11:41:59;103118.25;;;9.39;100.00
46718;BME280;32448;44.960;-0.698;2023-02-01T11:44:39;103104.16;;;9.36;100.00
46718;BME280;32448;44.960;-0.698;2023-02-01T11:47:21;103114.84;;;9.40;100.00
46718;BME280;32448;44.960;-0.698;2023-02-01T11:49:51;103097.47;;;9.41;100.00
46718;BME280;32448;44.960;-0.698;2023-02-01T11:55:13;103058.59;;;9.31;100.00
46718;BME280;32448;44.960;-0.698;2023-02-01T12:05:59;103091.97;;;9.66;100.00
46718;BME280;32448;44.960;-0.698;2023-02-01T12:08:59;103094.81;;;9.85;100.00
46718;BME280;32448;44.960;-0.698;2023-02-01T12:17:12;103076.34;;;9.97;100.00
46718;BME280;32448;44.960;-0.698;2023-02-01T12:20:02;103086.31;;;10.18;100.00
46718;BME280;32448;44.960;-0.698;2023-02-01T12:22:48;103075.59;;;10.14;100.00
46718;BME280;32448;44.960;-0.698;2023-02-01T12:42:24;103042.59;;;10.16;100.00
46718;BME280;32448;44.960;-0.698;2023-02-01T12:45:15;103014.09;;;10.04;100.00
46718;BME280;32448;44.960;-0.698;2023-02-01T12:48:03;103031.44;;;10.18;100.00
46718;BME280;32448;44.960;-0.698;2023-02-01T12:51:03;103022.25;;;10.10;100.00
46718;BME280;32448;44.960;-0.698;2023-02-01T12:53:50;103004.13;;;10.13;100.00
46718;BME280;32448;44.960;-0.698;2023-02-01T12:56:32;103019.09;;;10.16;100.00
46718;BME280;32448;44.960;-0.698;2023-02-01T12:59:05;103017.47;;;10.18;100.00
46718;BME280;32448;44.960;-0.698;2023-02-01T13:01:46;103013.59;;;10.11;100.00
46718;BME280;32448;44.960;-0.698;2023-02-01T13:04:32;103011.53;;;10.06;100.00
46718;BME280;32448;44.960;-0.698;2023-02-01T13:10:17;102990.84;;;9.94;100.00
46718;BME280;32448;44.960;-0.698;2023-02-01T13:12:29;103009.50;;;10.00;100.00
46718;BME280;32448;44.960;-0.698;2023-02-01T13:15:16;103004.28;;;10.16;100.00
46718;BME280;32448;44.960;-0.698;2023-02-01T13:17:46;102995.13;;;10.08;100.00
46718;BME280;32448;44.960;-0.698;2023-02-01T13:20:28;102992.94;;;10.16;100.00
46718;BME280;32448;44.960;-0.698;2023-02-01T13:23:09;102988.53;;;10.15;100.00
46718;BME280;32448;44.960;-0.698;2023-02-01T13:28:28;102956.59;;;10.53;100.00
46718;BME280;32448;44.960;-0.698;2023-02-01T13:40:04;102967.91;;;10.36;100.00
46718;BME280;32448;44.960;-0.698;2023-02-01T13:42:58;102977.44;;;10.19;100.00
46718;BME280;32448;44.960;-0.698;2023-02-01T13:45:30;102974.81;;;10.03;100.00
46718;BME280;32448;44.960;-0.698;2023-02-01T13:48:03;102974.31;;;9.94;100.00
46718;BME280;32448;44.960;-0.698;2023-02-01T13:50:39;102965.50;;;9.92;100.00
46718;BME280;32448;44.960;-0.698;2023-02-01T13:55:41;102959.09;;;9.86;100.00
46718;BME280;32448;44.960;-0.698;2023-02-01T14:00:42;102945.03;;;9.84;100.00
46718;BME280;32448;44.960;-0.698;2023-02-01T14:03:18;102896.91;;;9.79;100.00
46718;BME280;32448;44.960;-0.698;2023-02-01T14:08:22;102911.75;;;9.97;100.00
46718;BME280;32448;44.960;-0.698;2023-02-01T14:10:55;102958.34;;;10.36;100.00
46718;BME280;32448;44.960;-0.698;2023-02-01T14:13:31;102950.16;;;10.30;100.00
46718;BME280;32448;44.960;-0.698;2023-02-01T14:21:32;102948.28;;;10.44;100.00
46718;BME280;32448;44.960;-0.698;2023-02-01T14:24:02;102914.00;;;10.21;100.00
46718;BME280;32448;44.960;-0.698;2023-02-01T14:29:18;102935.06;;;10.25;100.00
46718;BME280;32448;44.960;-0.698;2023-02-01T14:32:17;102938.88;;;10.15;100.00
46718;BME280;32448;44.960;-0.698;2023-02-01T14:42:34;102943.13;;;10.29;100.00
46718;BME280;32448;44.960;-0.698;2023-02-01T14:50:38;102945.84;;;10.31;100.00
46718;BME280;32448;44.960;-0.698;2023-02-01T14:59:01;102939.28;;;10.06;100.00
46718;BME280;32448;44.960;-0.698;2023-02-01T15:01:38;102934.72;;;10.02;100.00
46718;BME280;32448;44.960;-0.698;2023-02-01T15:04:15;102942.88;;;9.92;100.00
46718;BME280;32448;44.960;-0.698;2023-02-01T15:06:50;102941.31;;;9.79;100.00
46718;BME280;32448;44.960;-0.698;2023-02-01T15:09:39;102932.63;;;9.64;100.00
46718;BME280;32448;44.960;-0.698;2023-02-01T15:15:08;102934.44;;;9.50;100.00
46718;BME280;32448;44.960;-0.698;2023-02-01T15:17:35;102941.38;;;9.50;100.00
46718;BME280;32448;44.960;-0.698;2023-02-01T15:20:13;102927.53;;;9.51;100.00
46718;BME280;32448;44.960;-0.698;2023-02-01T15:22:54;102937.97;;;9.51;100.00
46718;BME280;32448;44.960;-0.698;2023-02-01T15:25:34;102947.34;;;9.47;100.00
46718;BME280;32448;44.960;-0.698;2023-02-01T15:28:10;102957.13;;;9.52;100.00
46718;BME280;32448;44.960;-0.698;2023-02-01T15:30:40;102955.09;;;9.77;100.00
46718;BME280;32448;44.960;-0.698;2023-02-01T15:33:27;102921.03;;;9.59;100.00
46718;BME280;32448;44.960;-0.698;2023-02-01T15:36:11;102952.47;;;9.77;100.00
46718;BME280;32448;44.960;-0.698;2023-02-01T15:38:42;102964.00;;;9.97;100.00
46718;BME280;32448;44.960;-0.698;2023-02-01T15:41:18;102958.38;;;9.89;100.00